Time;durP1;ratioP1;P1;durP2;ratioP2;P2;SDS_P1;SDS_P2;PMS_P1;PMS_P2;Temp;Humidity;BMP_temperature;BMP_pressure;BME280_temperature;BME280_humidity;BME280_pressure;Samples;Min_cycle;Max_cycle;Signal;HPM_P1;HPM_P2
2022/07/30 00:00:19;;;;;;;13.47;3.47;;;;;;;;;;5026683;28;20113;-60
2022/07/30 00:02:47;;;;;;;9.27;3.13;;;;;;;;;;5028949;28;20033;-61
2022/07/30 00:05:14;;;;;;;8.60;2.85;;;;;;;;;;5033224;28;20064;-60
2022/07/30 00:07:40;;;;;;;8.40;3.80;;;;;;;;;;5028244;28;20372;-60
2022/07/30 00:10:07;;;;;;;6.72;2.90;;;;;;;;;;5031307;28;20060;-60
2022/07/30 00:12:35;;;;;;;9.33;3.13;;;;;;;;;;5023444;28;20045;-60
2022/07/30 00:15:02;;;;;;;6.65;3.22;;;;;;;;;;5027021;28;20104;-60
2022/07/30 00:17:28;;;;;;;10.98;3.08;;;;;;;;;;5027993;28;20049;-60
2022/07/30 00:19:54;;;;;;;8.40;3.40;;;;;;;;;;5029331;28;20036;-60
2022/07/30 00:22:21;;;;;;;7.55;3.97;;;;;;;;;;5024421;28;20041;-61
2022/07/30 00:24:47;;;;;;;10.10;3.73;;;;;;;;;;5035641;28;20045;-58
2022/07/30 00:27:14;;;;;;;8.80;3.80;;;;;;;;;;5027246;28;20108;-60
2022/07/30 00:29:42;;;;;;;7.57;3.70;;;;;;;;;;5029701;28;20378;-60
2022/07/30 00:32:08;;;;;;;10.05;3.47;;;;;;;;;;5023089;28;20065;-60
2022/07/30 00:34:35;;;;;;;5.95;2.80;;;;;;;;;;5028055;28;20615;-60
2022/07/30 00:37:01;;;;;;;9.27;3.73;;;;;;;;;;5029240;28;20056;-61
2022/07/30 00:39:29;;;;;;;6.97;3.50;;;;;;;;;;5039322;28;20041;-60
2022/07/30 00:41:57;;;;;;;10.32;3.40;;;;;;;;;;5030148;28;20517;-60
2022/07/30 00:44:23;;;;;;;9.52;3.22;;;;;;;;;;5030042;28;20049;-60
2022/07/30 00:46:51;;;;;;;8.82;3.30;;;;;;;;;;5031404;28;20044;-60
2022/07/30 00:49:18;;;;;;;6.83;3.53;;;;;;;;;;5034776;28;20065;-61
2022/07/30 00:51:44;;;;;;;9.50;3.92;;;;;;;;;;5022790;28;20042;-61
2022/07/30 00:54:11;;;;;;;7.32;3.40;;;;;;;;;;5037175;28;20045;-59
2022/07/30 00:56:38;;;;;;;9.23;3.58;;;;;;;;;;5022122;28;20049;-60
2022/07/30 00:59:04;;;;;;;10.80;4.10;;;;;;;;;;5030241;28;20037;-60
2022/07/30 01:01:31;;;;;;;8.03;3.37;;;;;;;;;;5022611;28;20306;-60
2022/07/30 01:03:59;;;;;;;9.65;3.45;;;;;;;;;;5038911;28;20235;-60
2022/07/30 01:06:26;;;;;;;11.00;3.55;;;;;;;;;;5025994;28;21203;-60
2022/07/30 01:08:53;;;;;;;8.60;3.47;;;;;;;;;;5025396;28;20033;-60
2022/07/30 01:11:20;;;;;;;11.85;3.90;;;;;;;;;;5031433;28;20056;-60
2022/07/30 01:13:46;;;;;;;8.73;3.57;;;;;;;;;;5040563;28;20033;-60
2022/07/30 01:16:13;;;;;;;7.88;3.42;;;;;;;;;;5025354;28;20038;-60
2022/07/30 01:21:29;;;;;;;7.00;3.55;;;;;;;;;;5033973;28;20064;-60
2022/07/30 01:23:58;;;;;;;10.05;3.90;;;;;;;;;;5024702;28;20041;-60
2022/07/30 01:26:26;;;;;;;10.90;4.10;;;;;;;;;;5033453;28;20053;-60
2022/07/30 01:28:54;;;;;;;8.93;3.92;;;;;;;;;;5021021;28;20406;-60
2022/07/30 01:31:21;;;;;;;9.15;3.90;;;;;;;;;;5012291;28;20707;-60
2022/07/30 01:33:49;;;;;;;10.05;3.47;;;;;;;;;;5042319;28;20045;-58
2022/07/30 01:36:16;;;;;;;10.00;3.67;;;;;;;;;;5014809;28;20045;-60
2022/07/30 01:38:44;;;;;;;7.13;3.40;;;;;;;;;;5035153;28;20079;-59
2022/07/30 01:41:11;;;;;;;9.73;4.35;;;;;;;;;;5036023;28;20072;-59
2022/07/30 01:43:39;;;;;;;8.20;3.60;;;;;;;;;;5034969;28;20041;-59
2022/07/30 01:46:06;;;;;;;9.63;3.78;;;;;;;;;;5028858;28;20064;-59
2022/07/30 01:48:35;;;;;;;8.60;3.70;;;;;;;;;;5033401;28;20654;-58
2022/07/30 01:51:03;;;;;;;7.70;4.10;;;;;;;;;;5041792;28;20072;-59
2022/07/30 01:53:31;;;;;;;7.75;3.70;;;;;;;;;;5028938;28;20057;-59
2022/07/30 01:55:59;;;;;;;8.38;3.83;;;;;;;;;;5037242;28;20053;-59
2022/07/30 01:58:27;;;;;;;6.53;3.72;;;;;;;;;;4996173;28;20033;-59
2022/07/30 02:00:57;;;;;;;10.05;3.97;;;;;;;;;;5036511;28;20045;-59
2022/07/30 02:03:23;;;;;;;9.97;3.80;;;;;;;;;;5003718;28;20590;-59
2022/07/30 02:05:52;;;;;;;7.90;3.50;;;;;;;;;;5027295;28;20032;-59
2022/07/30 02:08:24;;;;;;;9.88;3.47;;;;;;;;;;5032980;28;20029;-59
2022/07/30 02:10:52;;;;;;;7.18;4.03;;;;;;;;;;5037770;28;20266;-58
2022/07/30 02:13:20;;;;;;;9.55;5.03;;;;;;;;;;5017769;28;20033;-60
2022/07/30 02:15:50;;;;;;;11.53;4.13;;;;;;;;;;5039431;28;20041;-53
2022/07/30 02:18:20;;;;;;;8.30;3.78;;;;;;;;;;5036566;28;20041;-60
2022/07/30 02:20:48;;;;;;;11.40;4.70;;;;;;;;;;5030482;28;20049;-59
2022/07/30 02:23:15;;;;;;;7.43;4.30;;;;;;;;;;5022457;28;20045;-60
2022/07/30 02:25:43;;;;;;;8.38;4.28;;;;;;;;;;5024393;28;20072;-59
2022/07/30 02:28:11;;;;;;;7.97;4.43;;;;;;;;;;5037391;28;20037;-59
2022/07/30 02:30:40;;;;;;;9.40;4.45;;;;;;;;;;5031708;28;20033;-59
2022/07/30 02:33:09;;;;;;;11.63;4.70;;;;;;;;;;5041370;28;20051;-60
2022/07/30 02:35:37;;;;;;;10.07;4.22;;;;;;;;;;5019245;28;20112;-59
2022/07/30 02:38:05;;;;;;;9.27;4.22;;;;;;;;;;5031209;28;20041;-59
2022/07/30 02:40:32;;;;;;;8.87;3.93;;;;;;;;;;5033556;28;20102;-59
2022/07/30 02:43:00;;;;;;;10.05;4.50;;;;;;;;;;5037793;28;20519;-59
2022/07/30 02:45:27;;;;;;;8.95;3.60;;;;;;;;;;5037103;28;20044;-59
2022/07/30 02:47:55;;;;;;;11.98;4.68;;;;;;;;;;4988539;28;20502;-59
2022/07/30 02:50:23;;;;;;;11.25;4.25;;;;;;;;;;5016305;28;20045;-59
2022/07/30 02:52:51;;;;;;;10.07;4.33;;;;;;;;;;5028801;28;20041;-59
2022/07/30 02:55:18;;;;;;;7.90;3.72;;;;;;;;;;5032551;28;20063;-59
2022/07/30 02:57:46;;;;;;;9.10;3.97;;;;;;;;;;5035904;28;20049;-59
2022/07/30 03:00:13;;;;;;;7.95;3.88;;;;;;;;;;5037353;28;20828;-59
2022/07/30 03:02:40;;;;;;;9.82;4.00;;;;;;;;;;5038523;28;20037;-59
2022/07/30 03:05:08;;;;;;;11.83;4.50;;;;;;;;;;5039785;28;20045;-59
2022/07/30 03:07:35;;;;;;;10.55;4.00;;;;;;;;;;5028026;28;20486;-60
2022/07/30 03:10:04;;;;;;;8.55;3.60;;;;;;;;;;5023291;28;20865;-60
2022/07/30 03:12:33;;;;;;;8.77;4.07;;;;;;;;;;5040653;28;20048;-59
2022/07/30 03:15:00;;;;;;;7.88;3.92;;;;;;;;;;5020992;28;20097;-60
2022/07/30 03:17:28;;;;;;;9.67;4.50;;;;;;;;;;5040736;28;20069;-59
2022/07/30 03:19:55;;;;;;;8.52;4.22;;;;;;;;;;5030324;28;20060;-59
2022/07/30 03:22:24;;;;;;;9.05;4.40;;;;;;;;;;5030269;28;20059;-59
2022/07/30 03:24:53;;;;;;;9.65;3.95;;;;;;;;;;5035574;28;20037;-59
2022/07/30 03:27:22;;;;;;;7.57;4.40;;;;;;;;;;5023505;28;20040;-59
2022/07/30 03:29:49;;;;;;;11.67;4.63;;;;;;;;;;5024139;28;20053;-62
2022/07/30 03:32:16;;;;;;;7.88;4.10;;;;;;;;;;5031453;28;20490;-60
2022/07/30 03:34:43;;;;;;;7.70;4.07;;;;;;;;;;5036748;28;20068;-62
2022/07/30 03:37:09;;;;;;;9.90;3.95;;;;;;;;;;5010987;28;20072;-61
2022/07/30 03:39:36;;;;;;;9.65;3.97;;;;;;;;;;5031127;28;20036;-60
2022/07/30 03:42:04;;;;;;;9.60;4.23;;;;;;;;;;5031872;28;20351;-60
2022/07/30 03:44:33;;;;;;;11.43;4.13;;;;;;;;;;5036603;28;20093;-59
2022/07/30 03:47:00;;;;;;;9.10;4.30;;;;;;;;;;5033887;28;20046;-59
2022/07/30 03:49:28;;;;;;;10.68;4.28;;;;;;;;;;5024806;28;20041;-59
2022/07/30 03:51:55;;;;;;;9.23;4.53;;;;;;;;;;5022066;28;20041;-59
2022/07/30 03:54:22;;;;;;;10.53;4.70;;;;;;;;;;5020046;28;20577;-59
2022/07/30 03:56:49;;;;;;;11.68;4.45;;;;;;;;;;5028411;28;20067;-58
2022/07/30 03:59:21;;;;;;;9.18;4.25;;;;;;;;;;5030876;28;20037;-60
2022/07/30 04:01:49;;;;;;;10.52;4.70;;;;;;;;;;5040224;28;20113;-59
2022/07/30 04:04:15;;;;;;;8.52;4.70;;;;;;;;;;5020016;28;20042;-60
2022/07/30 04:06:42;;;;;;;11.00;4.40;;;;;;;;;;5028788;28;20046;-60
2022/07/30 04:09:09;;;;;;;8.90;4.05;;;;;;;;;;5026975;28;20041;-59
2022/07/30 04:11:35;;;;;;;9.27;4.72;;;;;;;;;;5028262;28;20050;-60
2022/07/30 04:14:02;;;;;;;12.18;4.68;;;;;;;;;;5017609;28;20044;-60
2022/07/30 04:16:36;;;;;;;9.15;4.30;;;;;;;;;;5017356;28;20040;-60
2022/07/30 04:19:07;;;;;;;9.77;4.97;;;;;;;;;;5016233;28;21204;-60
2022/07/30 04:21:34;;;;;;;10.95;4.90;;;;;;;;;;5032565;28;20042;-60
2022/07/30 04:24:01;;;;;;;8.07;4.43;;;;;;;;;;5012012;28;20037;-60
2022/07/30 04:26:29;;;;;;;12.43;4.78;;;;;;;;;;5027357;28;20103;-59
2022/07/30 04:28:55;;;;;;;8.60;4.07;;;;;;;;;;5018658;28;20044;-60
2022/07/30 04:31:22;;;;;;;12.53;4.67;;;;;;;;;;5030028;28;20029;-60
2022/07/30 04:33:48;;;;;;;8.65;4.25;;;;;;;;;;5030745;28;20047;-59
2022/07/30 04:36:16;;;;;;;9.25;5.05;;;;;;;;;;5021836;28;20072;-60
2022/07/30 04:38:43;;;;;;;12.07;4.93;;;;;;;;;;5018840;28;20057;-60
2022/07/30 04:41:09;;;;;;;10.85;4.32;;;;;;;;;;5022151;28;20595;-61
2022/07/30 04:43:36;;;;;;;10.07;4.60;;;;;;;;;;5036641;28;20067;-60
2022/07/30 04:46:02;;;;;;;9.15;4.80;;;;;;;;;;5032764;28;20120;-60
2022/07/30 04:48:29;;;;;;;10.52;4.70;;;;;;;;;;5045318;28;20045;-59
2022/07/30 04:50:59;;;;;;;11.00;5.63;;;;;;;;;;5019939;28;20041;-60
2022/07/30 04:53:27;;;;;;;11.13;5.53;;;;;;;;;;5037434;28;20071;-60
2022/07/30 04:55:55;;;;;;;12.37;5.27;;;;;;;;;;5030138;28;20052;-60
2022/07/30 04:58:22;;;;;;;9.55;5.20;;;;;;;;;;5032019;28;20037;-60
2022/07/30 05:00:49;;;;;;;12.75;5.60;;;;;;;;;;5030054;28;20041;-59
2022/07/30 05:03:17;;;;;;;9.15;4.32;;;;;;;;;;5033763;28;20037;-60
2022/07/30 05:05:44;;;;;;;11.25;5.03;;;;;;;;;;5042667;28;20118;-59
2022/07/30 05:08:12;;;;;;;9.73;5.20;;;;;;;;;;5036329;28;20115;-60
2022/07/30 05:10:40;;;;;;;8.52;5.05;;;;;;;;;;5025699;28;20042;-60
2022/07/30 05:13:10;;;;;;;9.43;6.00;;;;;;;;;;5020734;28;20033;-59
2022/07/30 05:15:36;;;;;;;10.90;5.82;;;;;;;;;;5027645;28;20045;-59
2022/07/30 05:18:03;;;;;;;12.77;6.25;;;;;;;;;;5042648;28;20040;-60
2022/07/30 05:20:29;;;;;;;13.23;5.87;;;;;;;;;;5027088;28;20037;-59
2022/07/30 05:22:56;;;;;;;10.75;5.57;;;;;;;;;;5029010;28;20406;-59
2022/07/30 05:25:23;;;;;;;12.07;5.82;;;;;;;;;;5018508;28;20087;-59
2022/07/30 05:27:51;;;;;;;9.82;5.90;;;;;;;;;;5032824;28;20064;-59
2022/07/30 05:30:17;;;;;;;12.20;6.18;;;;;;;;;;5020901;28;20037;-60
2022/07/30 05:32:44;;;;;;;10.20;5.73;;;;;;;;;;5027519;28;20041;-59
2022/07/30 05:35:10;;;;;;;9.65;5.70;;;;;;;;;;5036368;28;20058;-60
2022/07/30 05:37:37;;;;;;;9.60;5.35;;;;;;;;;;5039679;28;20041;-60
2022/07/30 05:40:04;;;;;;;10.68;5.30;;;;;;;;;;5031263;28;20382;-60
2022/07/30 05:42:30;;;;;;;9.90;5.75;;;;;;;;;;5029693;28;20051;-59
2022/07/30 05:44:59;;;;;;;10.43;5.50;;;;;;;;;;5035696;28;20065;-60
2022/07/30 05:47:25;;;;;;;11.75;5.45;;;;;;;;;;5035600;28;20032;-60
2022/07/30 05:49:52;;;;;;;12.85;5.72;;;;;;;;;;5024651;28;20049;-60
2022/07/30 05:52:18;;;;;;;16.65;6.07;;;;;;;;;;5033759;28;20037;-60
2022/07/30 05:54:45;;;;;;;17.45;5.93;;;;;;;;;;5021525;28;20323;-60
2022/07/30 05:57:12;;;;;;;10.43;5.63;;;;;;;;;;5020253;28;20045;-60
2022/07/30 05:59:38;;;;;;;12.75;6.50;;;;;;;;;;5018200;28;20637;-60
2022/07/30 06:02:06;;;;;;;12.10;6.15;;;;;;;;;;5034188;28;20068;-60
2022/07/30 06:04:34;;;;;;;10.30;5.97;;;;;;;;;;5023746;28;20040;-61
2022/07/30 06:07:00;;;;;;;10.73;6.10;;;;;;;;;;5033459;28;20041;-61
2022/07/30 06:09:27;;;;;;;11.50;5.90;;;;;;;;;;5019774;28;20038;-59
2022/07/30 06:11:53;;;;;;;12.23;5.95;;;;;;;;;;5018965;28;20068;-59
2022/07/30 06:14:20;;;;;;;14.50;7.20;;;;;;;;;;5018374;28;20052;-60
2022/07/30 06:16:47;;;;;;;10.70;6.10;;;;;;;;;;5034216;28;20111;-60
2022/07/30 06:19:15;;;;;;;12.43;5.95;;;;;;;;;;5018601;28;20052;-59
2022/07/30 06:21:41;;;;;;;12.80;6.07;;;;;;;;;;5032332;28;20041;-60
2022/07/30 06:24:08;;;;;;;10.95;6.10;;;;;;;;;;5014560;28;20036;-59
2022/07/30 06:26:35;;;;;;;11.15;6.05;;;;;;;;;;5032095;28;20037;-59
2022/07/30 06:29:01;;;;;;;10.82;5.78;;;;;;;;;;5022970;28;20116;-59
2022/07/30 06:31:28;;;;;;;12.55;5.85;;;;;;;;;;5033369;28;20045;-55
2022/07/30 06:33:55;;;;;;;15.90;5.93;;;;;;;;;;5018779;28;20068;-59
2022/07/30 06:36:23;;;;;;;12.38;6.10;;;;;;;;;;5031506;28;20131;-59
2022/07/30 06:38:49;;;;;;;11.82;5.60;;;;;;;;;;5017753;28;20101;-58
2022/07/30 06:41:16;;;;;;;12.63;5.95;;;;;;;;;;5030411;28;20037;-59
2022/07/30 06:43:42;;;;;;;12.85;5.35;;;;;;;;;;5033337;28;20100;-59
2022/07/30 06:46:09;;;;;;;12.43;6.53;;;;;;;;;;5020646;28;20036;-59
2022/07/30 06:48:36;;;;;;;12.80;5.30;;;;;;;;;;5034650;28;20068;-59
2022/07/30 06:51:03;;;;;;;9.95;5.57;;;;;;;;;;5018878;28;20045;-59
2022/07/30 06:53:30;;;;;;;11.63;5.82;;;;;;;;;;5032013;28;20178;-60
2022/07/30 06:55:57;;;;;;;9.40;5.15;;;;;;;;;;5035042;28;20054;-59
2022/07/30 06:58:23;;;;;;;10.77;5.43;;;;;;;;;;5034554;28;20041;-59
2022/07/30 07:00:50;;;;;;;10.15;5.13;;;;;;;;;;5024023;28;20573;-59
2022/07/30 07:03:16;;;;;;;13.68;4.90;;;;;;;;;;5030404;28;20067;-60
2022/07/30 07:05:43;;;;;;;8.10;4.35;;;;;;;;;;5030762;28;20041;-59
2022/07/30 07:08:09;;;;;;;8.15;4.30;;;;;;;;;;5028947;28;20029;-59
2022/07/30 07:10:37;;;;;;;7.83;3.97;;;;;;;;;;5030152;28;20037;-59
2022/07/30 07:13:04;;;;;;;9.63;4.40;;;;;;;;;;5038092;28;20181;-59
2022/07/30 07:15:30;;;;;;;10.80;4.97;;;;;;;;;;5032861;28;20037;-60
2022/07/30 07:17:57;;;;;;;8.82;4.40;;;;;;;;;;5037263;28;20057;-59
2022/07/30 07:20:24;;;;;;;12.82;5.60;;;;;;;;;;5020202;28;20090;-60
2022/07/30 07:22:50;;;;;;;16.93;5.37;;;;;;;;;;5036573;28;20037;-59
2022/07/30 07:25:17;;;;;;;12.05;4.97;;;;;;;;;;5017801;28;20100;-60
2022/07/30 07:27:45;;;;;;;11.13;4.47;;;;;;;;;;5032493;28;20098;-59
2022/07/30 07:30:13;;;;;;;8.93;4.60;;;;;;;;;;5032504;28;20029;-59
2022/07/30 07:32:39;;;;;;;11.57;5.35;;;;;;;;;;5008450;28;20042;-59
2022/07/30 07:35:07;;;;;;;10.23;5.10;;;;;;;;;;5002014;28;20037;-59
2022/07/30 07:37:34;;;;;;;10.52;4.93;;;;;;;;;;5025172;28;20044;-59
2022/07/30 07:40:00;;;;;;;10.00;4.78;;;;;;;;;;5025411;28;20047;-59
2022/07/30 07:42:27;;;;;;;10.32;4.95;;;;;;;;;;5029057;28;20067;-60
2022/07/30 07:44:54;;;;;;;11.82;5.07;;;;;;;;;;5031929;28;20280;-60
2022/07/30 07:47:21;;;;;;;9.03;4.30;;;;;;;;;;5021355;28;20661;-61
2022/07/30 07:49:48;;;;;;;9.70;3.90;;;;;;;;;;5032439;28;20079;-59
2022/07/30 07:52:15;;;;;;;7.07;3.90;;;;;;;;;;5022083;28;20128;-60
2022/07/30 07:54:42;;;;;;;6.68;3.15;;;;;;;;;;5033633;28;20041;-59
2022/07/30 07:57:10;;;;;;;8.95;3.40;;;;;;;;;;5038995;28;20102;-58
2022/07/30 07:59:37;;;;;;;7.67;3.30;;;;;;;;;;5034345;28;20044;-59
2022/07/30 08:02:05;;;;;;;7.68;3.25;;;;;;;;;;5020203;28;20064;-59
2022/07/30 08:04:31;;;;;;;6.63;2.90;;;;;;;;;;5031677;28;20041;-59
2022/07/30 08:06:59;;;;;;;7.40;2.95;;;;;;;;;;5024538;28;20038;-59
2022/07/30 08:09:26;;;;;;;11.75;2.80;;;;;;;;;;5022654;28;20128;-59
2022/07/30 08:11:52;;;;;;;6.33;3.13;;;;;;;;;;5033033;28;20045;-60
2022/07/30 08:14:19;;;;;;;7.65;3.47;;;;;;;;;;5025169;28;20040;-60
2022/07/30 08:16:47;;;;;;;7.68;2.83;;;;;;;;;;5031022;28;20521;-60
2022/07/30 08:19:15;;;;;;;6.78;2.72;;;;;;;;;;5029946;28;20427;-60
2022/07/30 08:21:42;;;;;;;7.35;3.13;;;;;;;;;;5038365;28;20045;-60
2022/07/30 08:24:08;;;;;;;7.10;2.90;;;;;;;;;;5015962;28;20115;-58
2022/07/30 08:26:35;;;;;;;6.32;2.60;;;;;;;;;;5030602;28;20044;-59
2022/07/30 08:29:01;;;;;;;5.28;1.77;;;;;;;;;;5011619;28;20037;-59
2022/07/30 08:31:28;;;;;;;5.70;2.15;;;;;;;;;;5042034;28;20048;-58
2022/07/30 08:33:55;;;;;;;5.25;1.60;;;;;;;;;;5014591;28;21598;-59
2022/07/30 08:36:22;;;;;;;5.27;1.60;;;;;;;;;;5029750;28;20029;-59
2022/07/30 08:38:49;;;;;;;4.25;1.45;;;;;;;;;;5014114;28;20051;-59
2022/07/30 08:41:17;;;;;;;7.57;1.30;;;;;;;;;;5043137;28;20038;-59
2022/07/30 08:43:46;;;;;;;5.20;1.02;;;;;;;;;;5030987;28;22315;-60
2022/07/30 08:46:14;;;;;;;5.82;1.40;;;;;;;;;;5038195;28;20896;-60
2022/07/30 08:48:41;;;;;;;4.40;1.10;;;;;;;;;;5029772;28;20708;-60
2022/07/30 08:51:08;;;;;;;4.60;1.13;;;;;;;;;;5027987;28;20072;-58
2022/07/30 08:53:36;;;;;;;3.83;1.20;;;;;;;;;;5029863;28;20054;-60
2022/07/30 08:56:03;;;;;;;5.40;1.40;;;;;;;;;;5000989;28;20045;-59
2022/07/30 08:58:32;;;;;;;6.38;1.50;;;;;;;;;;4999045;28;20045;-59
2022/07/30 09:00:59;;;;;;;5.20;0.90;;;;;;;;;;5008567;28;20037;-60
2022/07/30 09:03:26;;;;;;;4.22;1.10;;;;;;;;;;5007446;28;20438;-60
2022/07/30 09:05:53;;;;;;;4.85;1.42;;;;;;;;;;5026549;28;20507;-60
2022/07/30 09:08:20;;;;;;;5.57;1.50;;;;;;;;;;5034115;28;20056;-59
2022/07/30 09:10:48;;;;;;;5.88;1.60;;;;;;;;;;5026929;28;20049;-60
2022/07/30 09:13:24;;;;;;;4.80;1.63;;;;;;;;;;5038530;28;20578;-60
2022/07/30 09:15:51;;;;;;;5.53;1.38;;;;;;;;;;5037327;28;20083;-59
2022/07/30 09:18:26;;;;;;;5.40;1.50;;;;;;;;;;5032893;28;20073;-60
2022/07/30 09:20:52;;;;;;;5.32;2.10;;;;;;;;;;5022968;28;20041;-60
2022/07/30 09:23:19;;;;;;;5.97;1.83;;;;;;;;;;5030826;28;20037;-58
2022/07/30 09:25:48;;;;;;;5.60;1.77;;;;;;;;;;5009582;28;20041;-59
2022/07/30 09:28:15;;;;;;;5.85;1.95;;;;;;;;;;5030074;28;20033;-59
2022/07/30 09:30:46;;;;;;;4.75;1.55;;;;;;;;;;5022880;28;20037;-59
2022/07/30 09:33:13;;;;;;;4.60;1.45;;;;;;;;;;5023812;28;20053;-58
2022/07/30 09:35:40;;;;;;;5.38;1.75;;;;;;;;;;5020262;28;20041;-59
2022/07/30 09:38:07;;;;;;;4.57;1.57;;;;;;;;;;5030000;28;20144;-61
2022/07/30 09:40:33;;;;;;;5.80;1.77;;;;;;;;;;5028841;28;20607;-59
2022/07/30 09:43:08;;;;;;;6.03;1.73;;;;;;;;;;5040234;28;20040;-60
2022/07/30 09:45:35;;;;;;;5.55;1.33;;;;;;;;;;5038377;28;20037;-60
2022/07/30 09:48:01;;;;;;;6.22;1.60;;;;;;;;;;5014995;28;20033;-58
2022/07/30 09:50:28;;;;;;;5.23;1.70;;;;;;;;;;5013126;28;20046;-57
2022/07/30 09:52:55;;;;;;;5.13;1.52;;;;;;;;;;5034490;28;20114;-58
2022/07/30 09:55:29;;;;;;;4.70;1.73;;;;;;;;;;5027180;28;20045;-58
2022/07/30 09:57:56;;;;;;;5.22;1.58;;;;;;;;;;4665412;28;10000336;-59
2022/07/30 10:00:25;;;;;;;4.22;1.48;;;;;;;;;;5015928;28;20136;-58
2022/07/30 10:02:52;;;;;;;5.20;1.50;;;;;;;;;;5015348;28;20298;-58
2022/07/30 10:05:19;;;;;;;4.37;1.57;;;;;;;;;;5032937;28;20055;-60
2022/07/30 10:07:50;;;;;;;4.03;1.17;;;;;;;;;;5019503;28;20041;-59
2022/07/30 10:10:18;;;;;;;6.13;1.85;;;;;;;;;;5026813;28;20657;-59
2022/07/30 10:12:45;;;;;;;5.80;1.80;;;;;;;;;;5013505;28;20134;-60
2022/07/30 10:15:13;;;;;;;4.53;1.65;;;;;;;;;;5037668;28;20048;-59
2022/07/30 10:17:41;;;;;;;7.50;1.70;;;;;;;;;;5025150;28;20041;-60
2022/07/30 10:20:08;;;;;;;7.30;2.13;;;;;;;;;;5028217;28;20099;-60
2022/07/30 10:22:34;;;;;;;5.55;1.50;;;;;;;;;;5013973;28;20317;-59
2022/07/30 10:25:01;;;;;;;4.40;1.65;;;;;;;;;;5019996;28;20037;-60
2022/07/30 10:27:28;;;;;;;5.65;1.55;;;;;;;;;;5016429;28;20124;-55
2022/07/30 10:29:55;;;;;;;6.83;1.80;;;;;;;;;;5021492;28;20059;-59
2022/07/30 10:32:24;;;;;;;5.35;1.58;;;;;;;;;;4671986;28;10000603;-59
2022/07/30 10:34:52;;;;;;;5.43;1.80;;;;;;;;;;4998412;28;20048;-59
2022/07/30 10:37:20;;;;;;;5.35;1.88;;;;;;;;;;5018108;28;20049;-59
2022/07/30 10:39:50;;;;;;;7.03;1.60;;;;;;;;;;5024066;28;20049;-59
2022/07/30 10:42:24;;;;;;;4.75;1.92;;;;;;;;;;5018604;28;20049;-59
2022/07/30 10:45:00;;;;;;;4.90;1.70;;;;;;;;;;5013183;28;20530;-59
2022/07/30 10:47:27;;;;;;;4.77;1.73;;;;;;;;;;5003252;28;20447;-59
2022/07/30 10:50:11;;;;;;;5.43;1.90;;;;;;;;;;5035266;28;20074;-59
2022/07/30 10:52:49;;;;;;;5.55;1.50;;;;;;;;;;4996529;28;20049;-58
2022/07/30 10:55:16;;;;;;;5.97;1.70;;;;;;;;;;5019266;28;20053;-58
2022/07/30 10:57:59;;;;;;;5.07;1.50;;;;;;;;;;5013320;28;20037;-58
2022/07/30 11:00:25;;;;;;;4.70;1.60;;;;;;;;;;5011564;28;20037;-59
2022/07/30 11:03:10;;;;;;;4.70;1.60;;;;;;;;;;5021170;28;20882;-59
2022/07/30 11:05:39;;;;;;;4.40;1.25;;;;;;;;;;5017286;28;20034;-60
2022/07/30 11:08:24;;;;;;;4.80;1.80;;;;;;;;;;5004821;28;20132;-60
2022/07/30 11:10:51;;;;;;;5.53;1.55;;;;;;;;;;5020361;28;20207;-59
2022/07/30 11:13:17;;;;;;;5.67;1.57;;;;;;;;;;5014769;28;20033;-59
2022/07/30 11:15:55;;;;;;;4.18;1.30;;;;;;;;;;5008473;28;20128;-59
2022/07/30 11:18:21;;;;;;;3.83;1.48;;;;;;;;;;5017261;28;20448;-59
2022/07/30 11:21:12;;;;;;;4.70;1.20;;;;;;;;;;5012906;28;20115;-57
2022/07/30 11:23:41;;;;;;;4.32;1.20;;;;;;;;;;4987528;28;20049;-60
2022/07/30 11:26:08;;;;;;;3.77;1.23;;;;;;;;;;5026720;28;20152;-51
2022/07/30 11:28:36;;;;;;;3.90;1.23;;;;;;;;;;5003750;28;20745;-59
2022/07/30 11:31:04;;;;;;;4.72;1.30;;;;;;;;;;5011961;28;20060;-59
2022/07/30 11:33:30;;;;;;;4.00;1.30;;;;;;;;;;5002126;28;20048;-58
2022/07/30 11:36:21;;;;;;;3.90;1.17;;;;;;;;;;5005811;28;20034;-60
2022/07/30 11:38:52;;;;;;;4.60;1.30;;;;;;;;;;5002865;28;20053;-60
2022/07/30 11:41:19;;;;;;;2.95;0.80;;;;;;;;;;5020177;28;20495;-60
2022/07/30 11:43:46;;;;;;;3.45;1.00;;;;;;;;;;5012722;28;20044;-60
2022/07/30 11:46:13;;;;;;;4.10;1.40;;;;;;;;;;5029537;28;20041;-60
2022/07/30 11:48:43;;;;;;;3.97;1.10;;;;;;;;;;5004978;28;20049;-60
2022/07/30 11:51:10;;;;;;;3.17;1.00;;;;;;;;;;5020689;28;20050;-59
2022/07/30 11:53:36;;;;;;;3.60;1.00;;;;;;;;;;5004084;28;20072;-59
2022/07/30 11:56:05;;;;;;;4.15;1.20;;;;;;;;;;5017547;28;20051;-59
2022/07/30 11:58:33;;;;;;;4.25;1.30;;;;;;;;;;5009962;28;20037;-60
2022/07/30 12:01:00;;;;;;;3.20;0.75;;;;;;;;;;5013365;28;20073;-59
2022/07/30 12:03:30;;;;;;;5.50;1.20;;;;;;;;;;5004729;28;20048;-59
2022/07/30 12:06:02;;;;;;;4.32;1.33;;;;;;;;;;5024130;28;20040;-59
2022/07/30 12:08:29;;;;;;;4.97;1.17;;;;;;;;;;5007378;28;20060;-59
2022/07/30 12:10:57;;;;;;;6.88;1.60;;;;;;;;;;5009373;28;20041;-59
2022/07/30 12:13:25;;;;;;;4.63;1.30;;;;;;;;;;5025192;28;20428;-59
2022/07/30 12:15:52;;;;;;;5.03;1.30;;;;;;;;;;5015850;28;20049;-59
2022/07/30 12:18:25;;;;;;;4.10;1.40;;;;;;;;;;5027528;28;20034;-59
2022/07/30 12:20:58;;;;;;;3.33;0.90;;;;;;;;;;5018501;28;20064;-59
2022/07/30 12:23:25;;;;;;;3.92;1.15;;;;;;;;;;5028005;28;20045;-59
2022/07/30 12:25:52;;;;;;;3.72;1.23;;;;;;;;;;5002375;28;20905;-60
2022/07/30 12:28:22;;;;;;;3.20;0.93;;;;;;;;;;5021845;28;20083;-59
2022/07/30 12:30:50;;;;;;;3.40;1.10;;;;;;;;;;5015310;28;20072;-58
2022/07/30 12:33:17;;;;;;;3.67;1.43;;;;;;;;;;4330727;28;10000668;-59
2022/07/30 12:35:44;;;;;;;3.45;1.05;;;;;;;;;;5010699;28;20041;-59
2022/07/30 12:38:11;;;;;;;4.13;0.90;;;;;;;;;;5020326;28;20091;-59
2022/07/30 12:40:50;;;;;;;4.85;1.33;;;;;;;;;;5016604;28;20089;-59
2022/07/30 12:43:17;;;;;;;4.05;1.20;;;;;;;;;;4982403;28;20639;-59
2022/07/30 12:45:43;;;;;;;3.43;1.00;;;;;;;;;;5014219;28;20103;-59
2022/07/30 12:48:11;;;;;;;3.38;1.02;;;;;;;;;;5022924;28;20052;-59
2022/07/30 12:50:38;;;;;;;3.80;1.10;;;;;;;;;;5031219;28;20045;-59
2022/07/30 12:53:05;;;;;;;4.30;1.10;;;;;;;;;;4678738;28;10000353;-60
2022/07/30 12:55:32;;;;;;;3.85;0.93;;;;;;;;;;5029155;28;20612;-59
2022/07/30 12:58:00;;;;;;;4.45;1.05;;;;;;;;;;5019906;28;20128;-60
2022/07/30 13:00:28;;;;;;;3.83;1.42;;;;;;;;;;5029928;28;20075;-60
2022/07/30 13:02:54;;;;;;;3.93;1.10;;;;;;;;;;5026312;28;20508;-61
2022/07/30 13:05:41;;;;;;;4.20;1.15;;;;;;;;;;5018011;28;20508;-60
2022/07/30 13:08:08;;;;;;;4.03;1.10;;;;;;;;;;5030922;28;20056;-60
2022/07/30 13:10:34;;;;;;;3.63;1.20;;;;;;;;;;5035717;28;20053;-60
2022/07/30 13:13:02;;;;;;;3.78;1.25;;;;;;;;;;5032638;28;20043;-60
2022/07/30 13:15:29;;;;;;;3.97;1.30;;;;;;;;;;5027913;28;20048;-60
2022/07/30 13:17:56;;;;;;;4.00;1.20;;;;;;;;;;5024954;28;20041;-59
2022/07/30 13:20:24;;;;;;;4.87;1.20;;;;;;;;;;4669583;28;9999893;-59
2022/07/30 13:22:50;;;;;;;6.20;1.05;;;;;;;;;;5031050;28;20037;-59
2022/07/30 13:25:18;;;;;;;4.45;1.17;;;;;;;;;;5009521;28;20430;-59
2022/07/30 13:27:45;;;;;;;3.90;1.38;;;;;;;;;;5017457;28;20076;-60
2022/07/30 13:30:12;;;;;;;3.97;1.20;;;;;;;;;;5025730;28;20441;-61
2022/07/30 13:32:39;;;;;;;4.38;0.90;;;;;;;;;;5009938;28;20078;-61
2022/07/30 13:35:06;;;;;;;3.78;1.00;;;;;;;;;;5036155;28;20045;-61
2022/07/30 13:37:34;;;;;;;4.22;1.00;;;;;;;;;;5020411;28;20063;-60
2022/07/30 13:40:01;;;;;;;4.10;0.80;;;;;;;;;;5033882;28;20041;-61
2022/07/30 13:42:27;;;;;;;3.03;0.70;;;;;;;;;;5038860;28;20032;-60
2022/07/30 13:44:54;;;;;;;3.40;0.80;;;;;;;;;;5033424;28;20037;-61
2022/07/30 13:47:21;;;;;;;4.07;1.20;;;;;;;;;;5026049;28;20033;-60
2022/07/30 13:49:49;;;;;;;4.97;1.10;;;;;;;;;;5036496;28;20033;-61
2022/07/30 13:52:16;;;;;;;3.90;1.00;;;;;;;;;;5031550;28;20578;-61
2022/07/30 13:54:44;;;;;;;5.13;1.30;;;;;;;;;;5035815;28;20570;-61
2022/07/30 13:57:10;;;;;;;4.25;1.30;;;;;;;;;;5033401;28;20053;-61
2022/07/30 13:59:37;;;;;;;4.20;1.38;;;;;;;;;;5029186;28;20299;-61
2022/07/30 14:02:03;;;;;;;4.63;1.27;;;;;;;;;;5027446;28;20041;-61
2022/07/30 14:04:30;;;;;;;5.18;1.90;;;;;;;;;;5018481;28;20073;-61
2022/07/30 14:06:57;;;;;;;5.47;1.20;;;;;;;;;;5024366;28;20044;-61
2022/07/30 14:09:23;;;;;;;4.30;1.27;;;;;;;;;;5012419;28;21517;-61
2022/07/30 14:11:51;;;;;;;5.30;1.25;;;;;;;;;;5024437;28;20037;-61
2022/07/30 14:14:18;;;;;;;4.85;1.40;;;;;;;;;;5020660;28;20029;-61
2022/07/30 14:16:48;;;;;;;4.13;1.20;;;;;;;;;;5022874;28;20524;-61
2022/07/30 14:19:14;;;;;;;3.90;1.30;;;;;;;;;;5033835;28;20041;-61
2022/07/30 14:21:41;;;;;;;5.60;1.75;;;;;;;;;;5030275;28;20064;-61
2022/07/30 14:24:09;;;;;;;4.63;1.40;;;;;;;;;;5023504;28;20059;-61
2022/07/30 14:26:36;;;;;;;4.10;1.10;;;;;;;;;;5032046;28;20041;-60
2022/07/30 14:29:04;;;;;;;4.22;1.30;;;;;;;;;;5022211;28;20045;-61
2022/07/30 14:31:31;;;;;;;3.60;1.30;;;;;;;;;;5026946;28;20056;-60
2022/07/30 14:33:57;;;;;;;3.72;1.27;;;;;;;;;;5023300;28;20041;-61
2022/07/30 14:36:26;;;;;;;5.20;1.58;;;;;;;;;;5002691;28;20048;-62
2022/07/30 14:38:53;;;;;;;4.30;1.33;;;;;;;;;;5026862;28;20188;-61
2022/07/30 14:41:20;;;;;;;6.35;1.60;;;;;;;;;;5034314;28;20037;-61
2022/07/30 14:43:47;;;;;;;4.57;1.60;;;;;;;;;;5035094;28;20045;-62